sensor_id;sensor_type;location;lat;lon;timestamp;pressure;altitude;pressure_sealevel;temperature;humidity
72587;BME280;60621;49.576;11.024;2022-09-16T00:00:48;97727.09;;;14.68;72.98
72587;BME280;60621;49.576;11.024;2022-09-16T00:01:50;97718.41;;;14.64;73.21
72587;BME280;60621;49.576;11.024;2022-09-16T00:02:52;97725.66;;;14.59;73.00
72587;BME280;60621;49.576;11.024;2022-09-16T00:03:55;97726.84;;;14.51;73.22
72587;BME280;60621;49.576;11.024;2022-09-16T00:04:57;97725.34;;;14.47;73.23
72587;BME280;60621;49.576;11.024;2022-09-16T00:05:59;97721.19;;;14.49;71.84
72587;BME280;60621;49.576;11.024;2022-09-16T00:07:00;97720.78;;;14.47;73.24
72587;BME280;60621;49.576;11.024;2022-09-16T00:08:02;97715.16;;;14.42;72.81
72587;BME280;60621;49.576;11.024;2022-09-16T00:09:04;97716.31;;;14.41;72.53
72587;BME280;60621;49.576;11.024;2022-09-16T00:10:06;97712.59;;;14.34;73.07
72587;BME280;60621;49.576;11.024;2022-09-16T00:11:07;97717.53;;;14.29;74.00
72587;BME280;60621;49.576;11.024;2022-09-16T00:12:09;97705.94;;;14.12;74.31
72587;BME280;60621;49.576;11.024;2022-09-16T00:13:12;97712.34;;;14.18;74.21
72587;BME280;60621;49.576;11.024;2022-09-16T00:14:13;97721.41;;;14.21;73.71
72587;BME280;60621;49.576;11.024;2022-09-16T00:15:15;97725.16;;;14.27;74.01
72587;BME280;60621;49.576;11.024;2022-09-16T00:16:20;97719.09;;;14.26;73.13
72587;BME280;60621;49.576;11.024;2022-09-16T00:17:22;97722.53;;;14.23;74.07
72587;BME280;60621;49.576;11.024;2022-09-16T00:18:25;97719.13;;;14.23;73.23
72587;BME280;60621;49.576;11.024;2022-09-16T00:19:27;97716.84;;;14.25;73.06
72587;BME280;60621;49.576;11.024;2022-09-16T00:20:28;97720.16;;;14.32;72.84
72587;BME280;60621;49.576;11.024;2022-09-16T00:21:30;97725.44;;;14.40;72.80
72587;BME280;60621;49.576;11.024;2022-09-16T00:22:32;97726.19;;;14.37;73.27
72587;BME280;60621;49.576;11.024;2022-09-16T00:23:34;97722.78;;;14.40;73.35
72587;BME280;60621;49.576;11.024;2022-09-16T00:24:36;97725.00;;;14.48;72.83
72587;BME280;60621;49.576;11.024;2022-09-16T00:25:37;97729.47;;;14.55;73.14
72587;BME280;60621;49.576;11.024;2022-09-16T00:26:39;97730.25;;;14.52;73.21
72587;BME280;60621;49.576;11.024;2022-09-16T00:27:41;97728.31;;;14.56;72.85
72587;BME280;60621;49.576;11.024;2022-09-16T00:28:42;97721.50;;;14.58;72.41
72587;BME280;60621;49.576;11.024;2022-09-16T00:29:44;97718.03;;;14.62;72.33
72587;BME280;60621;49.576;11.024;2022-09-16T00:30:46;97730.94;;;14.59;72.56
72587;BME280;60621;49.576;11.024;2022-09-16T00:31:48;97726.84;;;14.51;72.54
72587;BME280;60621;49.576;11.024;2022-09-16T00:32:50;97720.09;;;14.43;72.95
72587;BME280;60621;49.576;11.024;2022-09-16T00:33:51;97719.00;;;14.37;72.96
72587;BME280;60621;49.576;11.024;2022-09-16T00:34:53;97733.38;;;14.43;72.71
72587;BME280;60621;49.576;11.024;2022-09-16T00:36:15;97734.13;;;14.44;71.36
72587;BME280;60621;49.576;11.024;2022-09-16T00:37:17;97730.66;;;14.47;70.88
72587;BME280;60621;49.576;11.024;2022-09-16T00:38:19;97734.88;;;14.41;71.35
72587;BME280;60621;49.576;11.024;2022-09-16T00:39:20;97731.81;;;14.46;71.35
72587;BME280;60621;49.576;11.024;2022-09-16T00:40:22;97729.91;;;14.50;71.13
72587;BME280;60621;49.576;11.024;2022-09-16T00:41:29;97733.28;;;14.54;70.99
72587;BME280;60621;49.576;11.024;2022-09-16T00:42:38;97731.34;;;14.58;71.44
72587;BME280;60621;49.576;11.024;2022-09-16T00:43:52;97730.53;;;14.65;71.63
72587;BME280;60621;49.576;11.024;2022-09-16T00:44:58;97721.41;;;14.66;71.05
72587;BME280;60621;49.576;11.024;2022-09-16T00:46:01;97727.09;;;14.68;70.80
72587;BME280;60621;49.576;11.024;2022-09-16T00:47:05;97722.88;;;14.70;70.40
72587;BME280;60621;49.576;11.024;2022-09-16T00:48:09;97722.97;;;14.63;70.64
72587;BME280;60621;49.576;11.024;2022-09-16T00:49:21;97726.72;;;14.66;70.16
72587;BME280;60621;49.576;11.024;2022-09-16T00:50:36;97722.16;;;14.66;70.01
72587;BME280;60621;49.576;11.024;2022-09-16T00:51:39;97718.44;;;14.60;70.87
72587;BME280;60621;49.576;11.024;2022-09-16T00:52:42;97714.94;;;14.67;70.34
72587;BME280;60621;49.576;11.024;2022-09-16T00:53:49;97721.03;;;14.67;70.21
72587;BME280;60621;49.576;11.024;2022-09-16T00:54:53;97721.09;;;14.60;70.19
72587;BME280;60621;49.576;11.024;2022-09-16T00:55:57;97723.75;;;14.60;70.47
72587;BME280;60621;49.576;11.024;2022-09-16T00:57:00;97720.25;;;14.67;69.95
72587;BME280;60621;49.576;11.024;2022-09-16T00:58:24;97716.84;;;14.66;69.82
72587;BME280;60621;49.576;11.024;2022-09-16T00:59:29;97721.84;;;14.60;69.85
72587;BME280;60621;49.576;11.024;2022-09-16T01:00:32;97717.66;;;14.63;70.19
72587;BME280;60621;49.576;11.024;2022-09-16T01:01:34;97721.09;;;14.60;69.87
72587;BME280;60621;49.576;11.024;2022-09-16T01:02:35;97717.34;;;14.57;70.07
72587;BME280;60621;49.576;11.024;2022-09-16T01:04:02;97717.97;;;14.69;69.60
72587;BME280;60621;49.576;11.024;2022-09-16T01:05:09;97716.09;;;14.66;69.77
72587;BME280;60621;49.576;11.024;2022-09-16T01:06:13;97721.44;;;14.62;70.10
72587;BME280;60621;49.576;11.024;2022-09-16T01:07:16;97717.25;;;14.65;70.19
72587;BME280;60621;49.576;11.024;2022-09-16T01:08:18;97711.94;;;14.65;70.33
72587;BME280;60621;49.576;11.024;2022-09-16T01:09:22;97716.47;;;14.68;70.14
72587;BME280;60621;49.576;11.024;2022-09-16T01:10:25;97719.13;;;14.68;69.86
72587;BME280;60621;49.576;11.024;2022-09-16T01:11:27;97714.25;;;14.63;70.02
72587;BME280;60621;49.576;11.024;2022-09-16T01:12:30;97717.22;;;14.68;69.50
72587;BME280;60621;49.576;11.024;2022-09-16T01:13:32;97711.19;;;14.64;70.00
72587;BME280;60621;49.576;11.024;2022-09-16T01:14:34;97710.81;;;14.62;69.91
72587;BME280;60621;49.576;11.024;2022-09-16T01:16:10;97711.53;;;14.66;70.29
72587;BME280;60621;49.576;11.024;2022-09-16T01:17:25;97712.28;;;14.67;70.07
72587;BME280;60621;49.576;11.024;2022-09-16T01:24:00;97721.81;;;14.64;70.53
72587;BME280;60621;49.576;11.024;2022-09-16T01:28:18;97723.75;;;14.60;70.74
72587;BME280;60621;49.576;11.024;2022-09-16T01:30:42;97715.88;;;14.53;72.15
72587;BME280;60621;49.576;11.024;2022-09-16T01:33:16;97713.16;;;14.56;70.92
72587;BME280;60621;49.576;11.024;2022-09-16T01:34:46;97714.34;;;14.52;71.19
72587;BME280;60621;49.576;11.024;2022-09-16T01:36:06;97714.31;;;14.55;70.86
72587;BME280;60621;49.576;11.024;2022-09-16T01:38:42;97709.41;;;14.54;71.06
72587;BME280;60621;49.576;11.024;2022-09-16T01:42:39;97715.38;;;14.62;71.18
72587;BME280;60621;49.576;11.024;2022-09-16T01:44:00;97711.63;;;14.59;71.21
72587;BME280;60621;49.576;11.024;2022-09-16T01:45:15;97710.06;;;14.62;70.52
72587;BME280;60621;49.576;11.024;2022-09-16T01:46:29;97707.53;;;14.51;70.75
72587;BME280;60621;49.576;11.024;2022-09-16T01:47:41;97717.78;;;14.49;70.96
72587;BME280;60621;49.576;11.024;2022-09-16T01:51:24;97710.94;;;14.51;71.52
72587;BME280;60621;49.576;11.024;2022-09-16T01:52:36;97708.59;;;14.57;70.74
72587;BME280;60621;49.576;11.024;2022-09-16T01:54:02;97711.25;;;14.57;70.95
72587;BME280;60621;49.576;11.024;2022-09-16T01:55:11;97711.97;;;14.61;70.62
72587;BME280;60621;49.576;11.024;2022-09-16T01:56:23;97713.47;;;14.62;70.44
72587;BME280;60621;49.576;11.024;2022-09-16T01:57:38;97712.72;;;14.62;70.43
72587;BME280;60621;49.576;11.024;2022-09-16T01:58:50;97718.78;;;14.62;70.78
72587;BME280;60621;49.576;11.024;2022-09-16T02:00:03;97707.81;;;14.60;70.38
72587;BME280;60621;49.576;11.024;2022-09-16T02:01:21;97708.28;;;14.51;70.44
72587;BME280;60621;49.576;11.024;2022-09-16T02:02:38;97717.03;;;14.45;70.81
72587;BME280;60621;49.576;11.024;2022-09-16T02:03:43;97704.13;;;14.47;71.52
72587;BME280;60621;49.576;11.024;2022-09-16T02:04:54;97712.84;;;14.51;71.11
72587;BME280;60621;49.576;11.024;2022-09-16T02:06:03;97703.72;;;14.52;70.88
72587;BME280;60621;49.576;11.024;2022-09-16T02:07:09;97709.41;;;14.54;70.74
72587;BME280;60621;49.576;11.024;2022-09-16T02:08:16;97710.16;;;14.54;70.16
72587;BME280;60621;49.576;11.024;2022-09-16T02:09:23;97707.13;;;14.52;70.56
72587;BME280;60621;49.576;11.024;2022-09-16T02:10:34;97698.78;;;14.54;70.20
72587;BME280;60621;49.576;11.024;2022-09-16T02:11:40;97706.34;;;14.55;70.21
72587;BME280;60621;49.576;11.024;2022-09-16T02:12:44;97698.38;;;14.55;70.58
72587;BME280;60621;49.576;11.024;2022-09-16T02:14:49;97699.63;;;14.44;70.84
72587;BME280;60621;49.576;11.024;2022-09-16T02:15:59;97704.22;;;14.36;71.16
72587;BME280;60621;49.576;11.024;2022-09-16T02:17:06;97703.06;;;14.37;71.42
72587;BME280;60621;49.576;11.024;2022-09-16T02:18:11;97712.53;;;14.38;71.03
72587;BME280;60621;49.576;11.024;2022-09-16T02:19:19;97711.00;;;14.41;71.01
72587;BME280;60621;49.576;11.024;2022-09-16T02:20:26;97711.00;;;14.41;71.13
72587;BME280;60621;49.576;11.024;2022-09-16T02:21:30;97709.81;;;14.45;71.14
72587;BME280;60621;49.576;11.024;2022-09-16T02:22:38;97713.22;;;14.46;71.21
72587;BME280;60621;49.576;11.024;2022-09-16T02:23:44;97715.13;;;14.45;70.98
72587;BME280;60621;49.576;11.024;2022-09-16T02:24:47;97716.72;;;14.39;71.40
72587;BME280;60621;49.576;11.024;2022-09-16T02:25:49;97716.75;;;14.32;71.82
72587;BME280;60621;49.576;11.024;2022-09-16T02:26:55;97717.91;;;14.34;71.86
72587;BME280;60621;49.576;11.024;2022-09-16T02:28:00;97711.00;;;14.41;71.35
72587;BME280;60621;49.576;11.024;2022-09-16T02:29:09;97714.38;;;14.45;71.54
72587;BME280;60621;49.576;11.024;2022-09-16T02:30:18;97710.59;;;14.42;70.69
72587;BME280;60621;49.576;11.024;2022-09-16T02:31:32;97721.31;;;14.31;71.32
72587;BME280;60621;49.576;11.024;2022-09-16T02:32:43;97721.72;;;14.30;71.67
72587;BME280;60621;49.576;11.024;2022-09-16T02:33:59;97715.25;;;14.31;72.14
72587;BME280;60621;49.576;11.024;2022-09-16T02:35:02;97719.81;;;14.30;71.82
72587;BME280;60621;49.576;11.024;2022-09-16T02:36:07;97717.91;;;14.31;72.47
72587;BME280;60621;49.576;11.024;2022-09-16T02:37:16;97717.91;;;14.31;73.15
72587;BME280;60621;49.576;11.024;2022-09-16T02:38:24;97714.09;;;14.35;72.25
72587;BME280;60621;49.576;11.024;2022-09-16T02:39:29;97715.53;;;14.44;71.67
72587;BME280;60621;49.576;11.024;2022-09-16T02:40:49;97709.84;;;14.42;71.87
72587;BME280;60621;49.576;11.024;2022-09-16T02:41:52;97712.63;;;14.31;72.42
72587;BME280;60621;49.576;11.024;2022-09-16T02:42:56;97708.09;;;14.28;73.35
72587;BME280;60621;49.576;11.024;2022-09-16T02:43:59;97706.91;;;14.32;72.72
72587;BME280;60621;49.576;11.024;2022-09-16T02:45:02;97709.56;;;14.32;72.17
72587;BME280;60621;49.576;11.024;2022-09-16T02:47:15;97717.84;;;14.38;71.99
72587;BME280;60621;49.576;11.024;2022-09-16T02:48:42;97712.53;;;14.38;71.37
72587;BME280;60621;49.576;11.024;2022-09-16T02:50:16;97715.25;;;14.31;71.17
72587;BME280;60621;49.576;11.024;2022-09-16T02:54:00;97715.28;;;14.27;71.79
72587;BME280;60621;49.576;11.024;2022-09-16T02:55:23;97709.22;;;14.30;72.01
72587;BME280;60621;49.576;11.024;2022-09-16T02:56:33;97708.31;;;14.44;71.08
72587;BME280;60621;49.576;11.024;2022-09-16T02:57:36;97703.78;;;14.45;70.80
72587;BME280;60621;49.576;11.024;2022-09-16T02:58:38;97706.81;;;14.43;70.73
72587;BME280;60621;49.576;11.024;2022-09-16T02:59:40;97710.69;;;14.35;70.84
72587;BME280;60621;49.576;11.024;2022-09-16T03:00:45;97717.16;;;14.34;71.13
72587;BME280;60621;49.576;11.024;2022-09-16T03:01:48;97711.06;;;14.33;71.39
72587;BME280;60621;49.576;11.024;2022-09-16T03:02:52;97701.28;;;14.27;72.17
72587;BME280;60621;49.576;11.024;2022-09-16T03:03:54;97696.28;;;14.32;72.18
72587;BME280;60621;49.576;11.024;2022-09-16T03:04:56;97700.44;;;14.33;72.36
72587;BME280;60621;49.576;11.024;2022-09-16T03:07:10;97704.28;;;14.29;73.37
72587;BME280;60621;49.576;11.024;2022-09-16T03:08:12;97702.44;;;14.26;73.25
72587;BME280;60621;49.576;11.024;2022-09-16T03:09:15;97701.28;;;14.27;72.92
72587;BME280;60621;49.576;11.024;2022-09-16T03:10:18;97703.88;;;14.34;71.51
72587;BME280;60621;49.576;11.024;2022-09-16T03:16:51;97705.13;;;14.19;72.23
72587;BME280;60621;49.576;11.024;2022-09-16T03:19:23;97710.94;;;14.03;73.41
72587;BME280;60621;49.576;11.024;2022-09-16T03:21:46;97709.78;;;14.04;73.12
72587;BME280;60621;49.576;11.024;2022-09-16T03:24:25;97705.63;;;14.06;72.83
72587;BME280;60621;49.576;11.024;2022-09-16T03:27:08;97701.41;;;14.13;73.01
72587;BME280;60621;49.576;11.024;2022-09-16T03:29:27;97703.00;;;14.03;73.68
72587;BME280;60621;49.576;11.024;2022-09-16T03:30:47;97708.63;;;14.08;73.40
72587;BME280;60621;49.576;11.024;2022-09-16T03:33:06;97703.50;;;13.87;75.74
72587;BME280;60621;49.576;11.024;2022-09-16T03:35:00;97699.38;;;13.79;75.76
72587;BME280;60621;49.576;11.024;2022-09-16T03:35:42;97702.06;;;13.72;75.73
72587;BME280;60621;49.576;11.024;2022-09-16T03:36:50;97703.59;;;13.73;76.22
72587;BME280;60621;49.576;11.024;2022-09-16T03:37:54;97701.31;;;13.71;75.84
72587;BME280;60621;49.576;11.024;2022-09-16T03:38:58;97709.72;;;13.59;75.65
72587;BME280;60621;49.576;11.024;2022-09-16T03:40:07;97707.50;;;13.54;76.56
72587;BME280;60621;49.576;11.024;2022-09-16T03:41:11;97707.78;;;13.67;75.27
72587;BME280;60621;49.576;11.024;2022-09-16T03:42:14;97703.19;;;13.74;75.11
72587;BME280;60621;49.576;11.024;2022-09-16T03:43:17;97704.69;;;13.79;74.56
72587;BME280;60621;49.576;11.024;2022-09-16T03:44:19;97709.22;;;13.82;74.85
72587;BME280;60621;49.576;11.024;2022-09-16T03:45:21;97700.97;;;13.69;74.76
72587;BME280;60621;49.576;11.024;2022-09-16T03:46:23;97700.56;;;13.67;75.34
72587;BME280;60621;49.576;11.024;2022-09-16T03:47:25;97699.72;;;13.84;74.88
72587;BME280;60621;49.576;11.024;2022-09-16T03:48:27;97701.94;;;13.90;74.29
72587;BME280;60621;49.576;11.024;2022-09-16T03:49:28;97701.19;;;13.89;74.80
72587;BME280;60621;49.576;11.024;2022-09-16T03:50:30;97695.13;;;13.92;74.56
72587;BME280;60621;49.576;11.024;2022-09-16T03:51:32;97701.56;;;13.91;75.30
72587;BME280;60621;49.576;11.024;2022-09-16T03:52:33;97698.53;;;13.89;74.21
72587;BME280;60621;49.576;11.024;2022-09-16T03:53:35;97703.53;;;13.80;74.89
72587;BME280;60621;49.576;11.024;2022-09-16T03:54:36;97702.78;;;13.76;75.23
72587;BME280;60621;49.576;11.024;2022-09-16T03:55:38;97696.75;;;13.72;75.68
72587;BME280;60621;49.576;11.024;2022-09-16T03:56:39;97701.28;;;13.78;75.39
72587;BME280;60621;49.576;11.024;2022-09-16T03:57:41;97701.72;;;13.70;75.24
72587;BME280;60621;49.576;11.024;2022-09-16T03:58:43;97694.47;;;13.77;75.30
72587;BME280;60621;49.576;11.024;2022-09-16T03:59:44;97702.03;;;13.75;75.09
72587;BME280;60621;49.576;11.024;2022-09-16T04:00:49;97698.63;;;13.78;75.39
72587;BME280;60621;49.576;11.024;2022-09-16T04:01:54;97699.47;;;13.68;75.87
72587;BME280;60621;49.576;11.024;2022-09-16T04:02:58;97702.84;;;13.69;76.14
72587;BME280;60621;49.576;11.024;2022-09-16T04:04:00;97700.91;;;13.76;75.65
72587;BME280;60621;49.576;11.024;2022-09-16T04:05:01;97697.88;;;13.78;75.81
72587;BME280;60621;49.576;11.024;2022-09-16T04:06:04;97696.75;;;13.75;75.82
72587;BME280;60621;49.576;11.024;2022-09-16T04:07:05;97692.59;;;13.71;76.00
72587;BME280;60621;49.576;11.024;2022-09-16T04:08:07;97696.00;;;13.75;75.83
72587;BME280;60621;49.576;11.024;2022-09-16T04:09:12;97694.47;;;13.77;75.07
72587;BME280;60621;49.576;11.024;2022-09-16T04:10:13;97694.81;;;13.79;75.01
72587;BME280;60621;49.576;11.024;2022-09-16T04:11:15;97688.75;;;13.82;75.03
72587;BME280;60621;49.576;11.024;2022-09-16T04:12:16;97686.94;;;13.72;75.61
72587;BME280;60621;49.576;11.024;2022-09-16T04:13:18;97691.53;;;13.65;76.51
72587;BME280;60621;49.576;11.024;2022-09-16T04:14:20;97695.25;;;13.74;74.91
72587;BME280;60621;49.576;11.024;2022-09-16T04:15:21;97694.00;;;13.86;74.58
72587;BME280;60621;49.576;11.024;2022-09-16T04:16:23;97689.50;;;13.87;74.84
72587;BME280;60621;49.576;11.024;2022-09-16T04:17:24;97695.56;;;13.80;75.46
72587;BME280;60621;49.576;11.024;2022-09-16T04:18:26;97688.78;;;13.79;75.53
72587;BME280;60621;49.576;11.024;2022-09-16T04:19:28;97686.84;;;13.83;75.23
72587;BME280;60621;49.576;11.024;2022-09-16T04:20:30;97693.69;;;13.80;75.44
72587;BME280;60621;49.576;11.024;2022-09-16T04:21:33;97690.66;;;13.78;75.65
72587;BME280;60621;49.576;11.024;2022-09-16T04:22:34;97686.56;;;13.70;76.13
72587;BME280;60621;49.576;11.024;2022-09-16T04:23:36;97690.34;;;13.69;76.38
72587;BME280;60621;49.576;11.024;2022-09-16T04:24:38;97687.41;;;13.56;77.02
72587;BME280;60621;49.576;11.024;2022-09-16T04:25:39;97690.03;;;13.56;77.26
72587;BME280;60621;49.576;11.024;2022-09-16T04:26:43;97690.28;;;13.76;76.43
72587;BME280;60621;49.576;11.024;2022-09-16T04:27:45;97688.75;;;13.82;76.37
72587;BME280;60621;49.576;11.024;2022-09-16T04:28:46;97687.97;;;13.86;76.09
72587;BME280;60621;49.576;11.024;2022-09-16T04:29:48;97685.72;;;13.84;75.91
72587;BME280;60621;49.576;11.024;2022-09-16T04:30:50;97691.81;;;13.77;75.95
72587;BME280;60621;49.576;11.024;2022-09-16T04:31:53;97676.72;;;13.71;76.73
72587;BME280;60621;49.576;11.024;2022-09-16T04:32:55;97691.13;;;13.66;77.31
72587;BME280;60621;49.576;11.024;2022-09-16T04:33:57;97684.00;;;13.56;77.46
72587;BME280;60621;49.576;11.024;2022-09-16T04:34:58;97684.81;;;13.49;77.84
72587;BME280;60621;49.576;11.024;2022-09-16T04:36:15;97672.72;;;13.45;77.83
72587;BME280;60621;49.576;11.024;2022-09-16T04:37:16;97678.72;;;13.52;77.73
72587;BME280;60621;49.576;11.024;2022-09-16T04:38:18;97677.13;;;13.66;76.66
72587;BME280;60621;49.576;11.024;2022-09-16T04:39:20;97679.41;;;13.64;76.60
72587;BME280;60621;49.576;11.024;2022-09-16T04:40:21;97679.03;;;13.65;76.63
72587;BME280;60621;49.576;11.024;2022-09-16T04:41:25;97673.69;;;13.69;76.30
72587;BME280;60621;49.576;11.024;2022-09-16T04:42:27;97684.66;;;13.71;76.28
72587;BME280;60621;49.576;11.024;2022-09-16T04:43:28;97680.91;;;13.65;77.46
72587;BME280;60621;49.576;11.024;2022-09-16T04:44:30;97687.38;;;13.64;76.98
72587;BME280;60621;49.576;11.024;2022-09-16T04:45:32;97682.03;;;13.67;76.96
72587;BME280;60621;49.576;11.024;2022-09-16T04:46:33;97679.75;;;13.73;76.10
72587;BME280;60621;49.576;11.024;2022-09-16T04:47:35;97683.56;;;13.68;76.38
72587;BME280;60621;49.576;11.024;2022-09-16T04:48:37;97682.84;;;13.61;77.18
72587;BME280;60621;49.576;11.024;2022-09-16T04:49:38;97679.03;;;13.65;76.82
72587;BME280;60621;49.576;11.024;2022-09-16T04:50:40;97673.38;;;13.63;76.89
72587;BME280;60621;49.576;11.024;2022-09-16T04:51:42;97669.91;;;13.66;76.88
72587;BME280;60621;49.576;11.024;2022-09-16T04:52:44;97666.94;;;13.57;77.49
72587;BME280;60621;49.576;11.024;2022-09-16T04:53:46;97656.00;;;13.51;77.41
72587;BME280;60621;49.576;11.024;2022-09-16T04:54:47;97653.00;;;13.49;77.48
72587;BME280;60621;49.576;11.024;2022-09-16T04:55:49;97643.91;;;13.50;77.29
72587;BME280;60621;49.576;11.024;2022-09-16T04:56:50;97659.41;;;13.55;77.01
72587;BME280;60621;49.576;11.024;2022-09-16T04:57:52;97663.63;;;13.49;77.46
72587;BME280;60621;49.576;11.024;2022-09-16T04:58:57;97677.19;;;13.55;77.11
72587;BME280;60621;49.576;11.024;2022-09-16T04:59:58;97679.44;;;13.60;76.83
72587;BME280;60621;49.576;11.024;2022-09-16T05:01:08;97683.50;;;13.72;75.95
72587;BME280;60621;49.576;11.024;2022-09-16T05:02:13;97682.75;;;13.71;75.86
72587;BME280;60621;49.576;11.024;2022-09-16T05:03:14;97675.53;;;13.79;75.72
72587;BME280;60621;49.576;11.024;2022-09-16T05:04:16;97669.50;;;13.75;75.45
72587;BME280;60621;49.576;11.024;2022-09-16T05:05:18;97669.91;;;13.66;76.04
72587;BME280;60621;49.576;11.024;2022-09-16T05:06:22;97669.56;;;13.68;76.00
72587;BME280;60621;49.576;11.024;2022-09-16T05:07:24;97671.06;;;13.65;76.56
72587;BME280;60621;49.576;11.024;2022-09-16T05:08:26;97678.28;;;13.65;76.35
72587;BME280;60621;49.576;11.024;2022-09-16T05:09:27;97685.06;;;13.66;77.11
72587;BME280;60621;49.576;11.024;2022-09-16T05:10:29;97684.66;;;13.71;76.39
72587;BME280;60621;49.576;11.024;2022-09-16T05:11:35;97680.91;;;13.65;76.25
72587;BME280;60621;49.576;11.024;2022-09-16T05:12:37;97682.41;;;13.69;75.79
72587;BME280;60621;49.576;11.024;2022-09-16T05:13:40;97691.47;;;13.72;75.11
72587;BME280;60621;49.576;11.024;2022-09-16T05:14:41;97691.44;;;13.79;75.21
72587;BME280;60621;49.576;11.024;2022-09-16T05:15:43;97692.16;;;13.83;74.96
72587;BME280;60621;49.576;11.024;2022-09-16T05:16:51;97689.81;;;13.92;74.29
72587;BME280;60621;49.576;11.024;2022-09-16T05:17:52;97689.50;;;13.87;74.32
72587;BME280;60621;49.576;11.024;2022-09-16T05:18:56;97693.25;;;13.86;74.61
72587;BME280;60621;49.576;11.024;2022-09-16T05:19:58;97689.91;;;13.81;74.63
72587;BME280;60621;49.576;11.024;2022-09-16T05:21:01;97692.13;;;13.87;74.87
72587;BME280;60621;49.576;11.024;2022-09-16T05:22:03;97688.69;;;13.90;73.86
72587;BME280;60621;49.576;11.024;2022-09-16T05:23:07;97695.44;;;13.98;73.70
72587;BME280;60621;49.576;11.024;2022-09-16T05:24:10;97701.94;;;13.93;73.33
72587;BME280;60621;49.576;11.024;2022-09-16T05:25:12;97692.06;;;13.94;73.75
72587;BME280;60621;49.576;11.024;2022-09-16T05:26:17;97691.97;;;14.04;73.18
72587;BME280;60621;49.576;11.024;2022-09-16T05:27:19;97699.59;;;14.02;73.17
72587;BME280;60621;49.576;11.024;2022-09-16T05:28:21;97705.22;;;14.08;72.56
72587;BME280;60621;49.576;11.024;2022-09-16T05:29:22;97699.16;;;14.07;72.47
72587;BME280;60621;49.576;11.024;2022-09-16T05:30:24;97709.78;;;14.04;72.62
72587;BME280;60621;49.576;11.024;2022-09-16T05:31:28;97707.16;;;14.00;73.08
72587;BME280;60621;49.576;11.024;2022-09-16T05:32:30;97707.56;;;13.99;73.07
72587;BME280;60621;49.576;11.024;2022-09-16T05:33:33;97714.00;;;13.98;73.27
72587;BME280;60621;49.576;11.024;2022-09-16T05:34:35;97704.25;;;13.84;73.72
72587;BME280;60621;49.576;11.024;2022-09-16T05:35:37;97703.94;;;13.78;73.66
72587;BME280;60621;49.576;11.024;2022-09-16T05:36:40;97701.28;;;13.75;73.99
72587;BME280;60621;49.576;11.024;2022-09-16T05:37:43;97697.47;;;13.79;73.68
72587;BME280;60621;49.576;11.024;2022-09-16T05:38:45;97703.19;;;13.78;73.77
72587;BME280;60621;49.576;11.024;2022-09-16T05:40:07;97706.59;;;13.75;73.66
72587;BME280;60621;49.576;11.024;2022-09-16T05:41:09;97708.47;;;13.81;74.00
72587;BME280;60621;49.576;11.024;2022-09-16T05:42:10;97704.59;;;13.90;73.48
72587;BME280;60621;49.576;11.024;2022-09-16T05:43:12;97704.94;;;13.95;73.47
72587;BME280;60621;49.576;11.024;2022-09-16T05:44:13;97706.50;;;13.89;73.19
72587;BME280;60621;49.576;11.024;2022-09-16T05:45:15;97710.66;;;13.90;74.00
72587;BME280;60621;49.576;11.024;2022-09-16T05:46:23;97709.16;;;13.89;73.10
72587;BME280;60621;49.576;11.024;2022-09-16T05:47:25;97712.94;;;13.88;73.53
72587;BME280;60621;49.576;11.024;2022-09-16T05:48:28;97715.19;;;13.93;73.46
72587;BME280;60621;49.576;11.024;2022-09-16T05:49:29;97714.78;;;13.95;73.31
72587;BME280;60621;49.576;11.024;2022-09-16T05:50:31;97704.94;;;13.95;73.63
72587;BME280;60621;49.576;11.024;2022-09-16T05:51:32;97710.63;;;13.97;73.15
72587;BME280;60621;49.576;11.024;2022-09-16T05:52:34;97703.44;;;13.94;73.06
72587;BME280;60621;49.576;11.024;2022-09-16T05:53:36;97710.22;;;13.99;72.91
72587;BME280;60621;49.576;11.024;2022-09-16T05:54:37;97716.16;;;14.14;71.78
72587;BME280;60621;49.576;11.024;2022-09-16T05:55:39;97709.34;;;14.13;71.81
72587;BME280;60621;49.576;11.024;2022-09-16T05:56:40;97717.72;;;14.07;71.67
72587;BME280;60621;49.576;11.024;2022-09-16T05:57:42;97708.94;;;14.14;71.60
72587;BME280;60621;49.576;11.024;2022-09-16T05:58:45;97710.63;;;13.97;72.56
72587;BME280;60621;49.576;11.024;2022-09-16T05:59:46;97712.81;;;14.06;72.57
72587;BME280;60621;49.576;11.024;2022-09-16T06:00:48;97716.66;;;13.98;72.47
72587;BME280;60621;49.576;11.024;2022-09-16T06:01:50;97714.69;;;14.09;72.51
72587;BME280;60621;49.576;11.024;2022-09-16T06:02:52;97712.78;;;14.09;72.02
72587;BME280;60621;49.576;11.024;2022-09-16T06:03:54;97720.78;;;14.06;72.67
72587;BME280;60621;49.576;11.024;2022-09-16T06:04:56;97723.88;;;13.97;72.92
72587;BME280;60621;49.576;11.024;2022-09-16T06:06:06;97715.94;;;13.94;72.18
72587;BME280;60621;49.576;11.024;2022-09-16T06:07:08;97719.81;;;13.82;72.28
72587;BME280;60621;49.576;11.024;2022-09-16T06:08:09;97726.19;;;13.92;72.28
72587;BME280;60621;49.576;11.024;2022-09-16T06:09:17;97723.88;;;13.97;72.17
72587;BME280;60621;49.576;11.024;2022-09-16T06:10:19;97717.41;;;13.98;71.98
72587;BME280;60621;49.576;11.024;2022-09-16T06:11:22;97710.22;;;13.99;72.02
72587;BME280;60621;49.576;11.024;2022-09-16T06:12:23;97711.72;;;14.00;72.05
72587;BME280;60621;49.576;11.024;2022-09-16T06:13:25;97711.72;;;14.00;71.88
72587;BME280;60621;49.576;11.024;2022-09-16T06:14:26;97721.16;;;14.04;72.00
72587;BME280;60621;49.576;11.024;2022-09-16T06:15:28;97718.47;;;14.12;71.19
72587;BME280;60621;49.576;11.024;2022-09-16T06:16:29;97723.13;;;13.97;71.21
72587;BME280;60621;49.576;11.024;2022-09-16T06:17:34;97720.03;;;14.05;71.47